createdAt,value
2023-04-02T00:00:09.702Z,78.32
2023-04-02T00:01:09.676Z,78.40
2023-04-02T00:02:09.712Z,78.91
2023-04-02T00:03:09.714Z,78.91
2023-04-02T00:04:09.754Z,78.91
2023-04-02T00:05:09.658Z,79.44
2023-04-02T00:06:09.610Z,79.21
2023-04-02T00:07:09.589Z,78.84
2023-04-02T00:08:09.587Z,79.21
2023-04-02T00:09:09.585Z,77.75
2023-04-02T00:10:09.626Z,77.18
2023-04-02T00:11:09.560Z,77.60
2023-04-02T00:12:09.548Z,77.75
2023-04-02T00:13:09.568Z,77.60
2023-04-02T00:14:09.550Z,78.77
2023-04-02T00:15:09.518Z,78.77
2023-04-02T00:16:09.542Z,78.84
2023-04-02T00:17:09.473Z,78.69
2023-04-02T00:18:09.483Z,78.69
2023-04-02T00:19:09.471Z,78.54
2023-04-02T00:20:09.451Z,78.84
2023-04-02T00:21:09.431Z,79.36
2023-04-02T00:22:09.438Z,79.21
2023-04-02T00:23:09.410Z,79.14
2023-04-02T00:24:09.395Z,79.06
2023-04-02T00:25:09.388Z,79.36
2023-04-02T00:26:09.361Z,79.36
2023-04-02T00:27:09.363Z,79.81
2023-04-02T00:28:09.407Z,79.66
2023-04-02T00:29:09.315Z,79.81
2023-04-02T00:30:09.350Z,79.81
2023-04-02T00:31:09.295Z,79.81
2023-04-02T00:32:09.356Z,79.96
2023-04-02T00:33:09.328Z,80.27
2023-04-02T00:34:09.273Z,79.81
2023-04-02T00:35:09.242Z,79.51
2023-04-02T00:36:09.274Z,79.44
2023-04-02T00:37:09.257Z,79.89
2023-04-02T00:38:09.253Z,80.27
2023-04-02T00:39:09.206Z,80.50
2023-04-02T00:40:09.274Z,80.89
2023-04-02T00:41:09.180Z,81.28
2023-04-02T00:42:09.166Z,81.28
2023-04-02T00:43:09.696Z,81.44
2023-04-02T00:44:09.130Z,81.60
2023-04-02T00:45:09.123Z,81.67
2023-04-02T00:46:09.151Z,81.51
2023-04-02T00:47:09.087Z,81.51
2023-04-02T00:48:09.184Z,81.51
2023-04-02T00:49:09.092Z,81.36
2023-04-02T00:50:09.085Z,81.28
2023-04-02T00:51:09.060Z,81.36
2023-04-02T00:52:09.107Z,81.51
2023-04-02T00:53:09.010Z,81.51
2023-04-02T00:54:09.012Z,81.75
2023-04-02T00:55:09.044Z,81.51
2023-04-02T00:56:08.998Z,81.67
2023-04-02T00:57:08.971Z,81.36
2023-04-02T00:58:08.992Z,81.36
2023-04-02T00:59:08.932Z,81.51
2023-04-02T01:00:09.099Z,81.44
2023-04-02T01:01:08.949Z,81.60
2023-04-02T01:02:08.949Z,81.75
2023-04-02T01:03:16.639Z,81.99
2023-04-02T01:04:08.919Z,82.15
2023-04-02T01:05:08.867Z,82.31
2023-04-02T01:06:08.871Z,82.47
2023-04-02T01:07:08.849Z,82.64
2023-04-02T01:08:08.822Z,82.80
2023-04-02T01:09:08.861Z,82.88
2023-04-02T01:10:08.815Z,82.88
2023-04-02T01:11:08.802Z,82.72
2023-04-02T01:12:08.765Z,82.80
2023-04-02T01:13:08.758Z,83.13
2023-04-02T01:14:08.752Z,83.13
2023-04-02T01:15:08.763Z,83.13
2023-04-02T01:16:08.742Z,83.13
2023-04-02T01:17:08.702Z,83.21
2023-04-02T01:18:08.686Z,82.80
2023-04-02T01:19:08.689Z,82.64
2023-04-02T01:20:08.675Z,82.64
2023-04-02T01:21:08.686Z,82.47
2023-04-02T01:22:08.644Z,82.80
2023-04-02T01:23:08.621Z,82.31
2023-04-02T01:24:08.644Z,82.07
2023-04-02T01:25:08.594Z,82.31
2023-04-02T01:26:08.582Z,82.07
2023-04-02T01:27:08.628Z,81.67
2023-04-02T01:28:08.559Z,81.44
2023-04-02T01:29:08.565Z,81.20
2023-04-02T01:30:08.571Z,80.89
2023-04-02T01:31:08.537Z,80.73
2023-04-02T01:32:08.541Z,81.20
2023-04-02T01:33:08.607Z,81.20
2023-04-02T01:34:08.511Z,81.36
2023-04-02T01:35:08.481Z,81.51
2023-04-02T01:36:08.471Z,81.67
2023-04-02T01:37:08.464Z,81.51
2023-04-02T01:38:08.446Z,81.75
2023-04-02T01:39:08.451Z,82.31
2023-04-02T01:40:08.409Z,82.23
2023-04-02T01:41:08.431Z,82.39
2023-04-02T01:42:09.404Z,83.29
2023-04-02T01:43:08.403Z,83.46
2023-04-02T01:44:08.393Z,83.79
2023-04-02T01:45:08.451Z,83.96
2023-04-02T01:46:08.345Z,83.96
2023-04-02T01:47:08.336Z,84.29
2023-04-02T01:48:08.426Z,84.21
2023-04-02T01:49:08.293Z,84.21
2023-04-02T01:50:08.294Z,84.21
2023-04-02T01:51:08.305Z,83.96
2023-04-02T01:52:08.273Z,83.54
2023-04-02T01:53:08.255Z,83.46
2023-04-02T01:54:08.229Z,83.79
2023-04-02T01:55:08.231Z,83.96
2023-04-02T01:56:08.224Z,83.96
2023-04-02T01:57:08.309Z,84.04
2023-04-02T01:58:08.196Z,84.63
2023-04-02T01:59:08.170Z,84.63
2023-04-02T02:00:08.164Z,85.15
2023-04-02T02:01:08.187Z,85.58
2023-04-02T02:02:08.159Z,85.58
2023-04-02T02:03:08.173Z,85.50
2023-04-02T02:04:08.112Z,85.67
2023-04-02T02:05:08.101Z,85.58
2023-04-02T02:06:08.092Z,85.58
2023-04-02T02:07:08.082Z,85.50
2023-04-02T02:08:08.080Z,84.89
2023-04-02T02:09:08.079Z,84.81
2023-04-02T02:10:08.023Z,84.55
2023-04-02T02:11:08.052Z,84.13
2023-04-02T02:12:08.025Z,84.29
2023-04-02T02:13:08.900Z,84.46
2023-04-02T02:14:07.987Z,84.29
2023-04-02T02:15:07.985Z,83.96
2023-04-02T02:16:07.985Z,84.46
2023-04-02T02:17:07.942Z,83.96
2023-04-02T02:18:07.934Z,83.38
2023-04-02T02:19:07.928Z,82.72
2023-04-02T02:20:07.906Z,82.47
2023-04-02T02:21:07.964Z,82.15
2023-04-02T02:22:07.917Z,81.99
2023-04-02T02:23:07.873Z,81.51
2023-04-02T02:24:07.879Z,81.20
2023-04-02T02:25:07.835Z,80.58
2023-04-02T02:26:07.836Z,80.42
2023-04-02T02:27:07.850Z,79.96
2023-04-02T02:28:07.815Z,78.91
2023-04-02T02:29:07.819Z,78.25
2023-04-02T02:30:07.776Z,78.11
2023-04-02T02:31:07.881Z,78.11
2023-04-02T02:32:07.806Z,78.32
2023-04-02T02:33:07.780Z,78.32
2023-04-02T02:34:07.737Z,78.47
2023-04-02T02:35:07.726Z,78.32
2023-04-02T02:36:07.776Z,78.47
2023-04-02T02:37:07.708Z,78.47
2023-04-02T02:38:07.704Z,78.25
2023-04-02T02:39:07.686Z,78.69
2023-04-02T02:40:07.650Z,79.14
2023-04-02T02:41:07.664Z,79.44
2023-04-02T02:42:07.639Z,79.66
2023-04-02T02:43:07.630Z,79.96
2023-04-02T02:44:07.604Z,80.58
2023-04-02T02:45:07.625Z,80.89
2023-04-02T02:46:07.614Z,81.36
2023-04-02T02:47:07.555Z,81.51
2023-04-02T02:48:07.592Z,81.75
2023-04-02T02:49:07.536Z,81.91
2023-04-02T02:50:07.526Z,81.83
2023-04-02T02:51:07.572Z,81.67
2023-04-02T02:52:07.691Z,81.36
2023-04-02T02:53:07.518Z,81.20
2023-04-02T02:54:07.594Z,80.89
2023-04-02T02:55:07.456Z,80.89
2023-04-02T02:56:07.475Z,81.12
2023-04-02T02:57:07.488Z,81.20
2023-04-02T02:58:07.426Z,80.73
2023-04-02T02:59:07.417Z,81.20
2023-04-02T03:00:07.405Z,80.89
2023-04-02T03:01:07.412Z,80.50
2023-04-02T03:02:07.535Z,80.73
2023-04-02T03:03:07.450Z,80.27
2023-04-02T03:04:07.507Z,80.27
2023-04-02T03:05:07.350Z,80.27
2023-04-02T03:06:07.319Z,80.12
2023-04-02T03:07:07.314Z,80.04
2023-04-02T03:08:07.346Z,79.81
2023-04-02T03:09:07.369Z,80.12
2023-04-02T03:10:07.286Z,79.74
2023-04-02T03:11:07.736Z,79.51
2023-04-02T03:12:07.249Z,79.29
2023-04-02T03:13:07.289Z,79.36
2023-04-02T03:14:07.238Z,79.29
2023-04-02T03:15:07.253Z,79.21
2023-04-02T03:16:07.240Z,78.32
2023-04-02T03:17:07.185Z,78.25
2023-04-02T03:18:07.245Z,78.62
2023-04-02T03:19:07.168Z,79.06
2023-04-02T03:20:07.159Z,79.14
2023-04-02T03:21:07.174Z,79.36
2023-04-02T03:22:07.145Z,79.06
2023-04-02T03:23:07.114Z,79.89
2023-04-02T03:24:07.140Z,79.81
2023-04-02T03:25:07.089Z,79.81
2023-04-02T03:26:07.150Z,79.59
2023-04-02T03:27:07.089Z,79.89
2023-04-02T03:28:07.036Z,80.35
2023-04-02T03:29:07.026Z,80.19
2023-04-02T03:30:07.026Z,80.42
2023-04-02T03:31:07.033Z,80.73
2023-04-02T03:32:07.011Z,80.89
2023-04-02T03:33:07.019Z,80.73
2023-04-02T03:34:06.962Z,81.12
2023-04-02T03:35:06.973Z,80.89
2023-04-02T03:36:06.964Z,81.36
2023-04-02T03:37:06.941Z,81.36
2023-04-02T03:38:06.911Z,81.20
2023-04-02T03:39:06.929Z,81.36
2023-04-02T03:40:06.899Z,81.51
2023-04-02T03:41:06.880Z,81.12
2023-04-02T03:42:06.883Z,81.67
2023-04-02T03:43:06.854Z,81.75
2023-04-02T03:44:06.844Z,81.99
2023-04-02T03:45:06.853Z,82.31
2023-04-02T03:46:06.808Z,82.39
2023-04-02T03:47:06.812Z,82.80
2023-04-02T03:48:06.819Z,83.21
2023-04-02T03:49:06.765Z,82.96
2023-04-02T03:50:06.785Z,82.64
2023-04-02T03:51:06.791Z,82.47
2023-04-02T03:52:06.749Z,82.07
2023-04-02T03:53:06.739Z,82.47
2023-04-02T03:54:06.709Z,82.64
2023-04-02T03:55:06.696Z,82.96
2023-04-02T03:56:06.690Z,83.46
2023-04-02T03:57:06.771Z,83.79
2023-04-02T03:58:06.648Z,83.79
2023-04-02T03:59:06.648Z,83.96
2023-04-02T04:00:06.653Z,84.46
2023-04-02T04:01:06.620Z,84.63
2023-04-02T04:02:06.645Z,85.58
2023-04-02T04:03:06.656Z,84.55
2023-04-02T04:04:06.640Z,85.50
2023-04-02T04:05:06.569Z,84.38
2023-04-02T04:06:06.564Z,84.63
2023-04-02T04:07:06.543Z,84.04
2023-04-02T04:08:07.263Z,83.87
2023-04-02T04:09:06.540Z,83.62
2023-04-02T04:10:06.515Z,84.04
2023-04-02T04:11:06.570Z,84.38
2023-04-02T04:12:06.521Z,84.04
2023-04-02T04:13:06.456Z,84.55
2023-04-02T04:14:06.451Z,84.29
2023-04-02T04:15:06.450Z,84.21
2023-04-02T04:16:06.479Z,84.89
2023-04-02T04:17:06.400Z,85.32
2023-04-02T04:18:06.412Z,85.50
2023-04-02T04:19:06.386Z,85.67
2023-04-02T04:20:06.362Z,85.58
2023-04-02T04:21:06.428Z,85.50
2023-04-02T04:22:06.340Z,85.67
2023-04-02T04:23:06.336Z,86.37
2023-04-02T04:24:06.331Z,86.73
2023-04-02T04:25:06.353Z,86.55
2023-04-02T04:26:06.314Z,85.76
2023-04-02T04:27:06.316Z,85.67
2023-04-02T04:28:06.271Z,85.58
2023-04-02T04:29:06.256Z,85.50
2023-04-02T04:30:06.332Z,85.41
2023-04-02T04:31:06.321Z,85.15
2023-04-02T04:32:06.268Z,84.98
2023-04-02T04:33:06.284Z,84.13
2023-04-02T04:34:06.215Z,83.46
2023-04-02T04:35:06.179Z,83.29
2023-04-02T04:36:06.270Z,84.04
2023-04-02T04:37:06.165Z,84.89
2023-04-02T04:38:06.140Z,86.02
2023-04-02T04:39:06.149Z,85.67
2023-04-02T04:40:06.131Z,86.02
2023-04-02T04:41:06.121Z,85.84
2023-04-02T04:42:06.094Z,86.37
2023-04-02T04:43:06.114Z,86.20
2023-04-02T04:44:06.067Z,86.02
2023-04-02T04:45:06.086Z,86.55
2023-04-02T04:46:06.157Z,86.37
2023-04-02T04:47:06.047Z,86.91
2023-04-02T04:48:06.076Z,86.91
2023-04-02T04:49:06.000Z,86.64
2023-04-02T04:50:05.996Z,86.46
2023-04-02T04:51:06.009Z,86.37
2023-04-02T04:52:05.960Z,86.91
2023-04-02T04:53:05.943Z,87.00
2023-04-02T04:54:05.939Z,87.09
2023-04-02T04:55:05.948Z,87.27
2023-04-02T04:56:16.527Z,87.09
2023-04-02T04:57:06.017Z,86.73
2023-04-02T04:58:05.903Z,87.09
2023-04-02T04:59:05.884Z,87.63
2023-04-02T05:00:05.901Z,87.18
2023-04-02T05:01:05.903Z,87.27
2023-04-02T05:02:05.838Z,87.09
2023-04-02T05:03:05.896Z,87.82
2023-04-02T05:04:05.825Z,88.00
2023-04-02T05:05:05.821Z,85.06
2023-04-02T05:06:05.806Z,84.38
2023-04-02T05:07:05.773Z,85.76
2023-04-02T05:08:05.780Z,85.58
2023-04-02T05:09:05.860Z,86.37
2023-04-02T05:10:05.731Z,85.93
2023-04-02T05:11:05.720Z,86.55
2023-04-02T05:12:05.736Z,86.55
2023-04-02T05:13:05.734Z,86.37
2023-04-02T05:14:05.693Z,87.00
2023-04-02T05:15:05.725Z,87.09
2023-04-02T05:16:05.681Z,87.54
2023-04-02T05:17:05.656Z,87.45
2023-04-02T05:18:05.683Z,87.36
2023-04-02T05:19:05.623Z,86.37
2023-04-02T05:20:05.620Z,85.67
2023-04-02T05:21:05.705Z,86.02
2023-04-02T05:22:05.608Z,86.02
2023-04-02T05:23:05.574Z,87.09
2023-04-02T05:24:05.558Z,87.36
2023-04-02T05:25:05.543Z,87.45
2023-04-02T05:26:05.543Z,87.00
2023-04-02T05:27:05.548Z,86.55
2023-04-02T05:28:05.518Z,86.20
2023-04-02T05:29:05.568Z,85.93
2023-04-02T05:30:05.524Z,86.55
2023-04-02T05:31:05.548Z,87.27
2023-04-02T05:32:05.443Z,88.65
2023-04-02T05:33:05.581Z,89.21
2023-04-02T05:34:05.427Z,90.27
2023-04-02T05:35:05.426Z,90.76
2023-04-02T05:36:05.413Z,91.75
2023-04-02T05:37:06.955Z,93.27
2023-04-02T05:38:05.379Z,94.32
2023-04-02T05:39:05.392Z,93.87
2023-04-02T05:40:05.423Z,95.42
2023-04-02T05:41:05.348Z,96.46
2023-04-02T05:42:05.321Z,96.35
2023-04-02T05:43:05.321Z,96.46
2023-04-02T05:44:05.311Z,96.90
2023-04-02T05:45:05.310Z,97.07
2023-04-02T05:46:05.273Z,97.46
2023-04-02T05:47:05.283Z,99.07
2023-04-02T05:48:05.346Z,99.78
2023-04-02T05:49:05.308Z,100.13
2023-04-02T05:50:05.249Z,100.43
2023-04-02T05:51:05.256Z,100.97
2023-04-02T05:52:05.204Z,102.08
2023-04-02T05:53:05.195Z,104.43
2023-04-02T05:54:05.194Z,108.05
2023-04-02T05:55:05.147Z,108.33
2023-04-02T05:56:05.151Z,109.03
2023-04-02T05:57:05.197Z,109.17
2023-04-02T05:58:25.614Z,110.17
2023-04-02T05:59:05.128Z,112.16
2023-04-02T06:00:05.122Z,113.52
2023-04-02T06:01:05.087Z,114.14
2023-04-02T06:02:05.145Z,114.21
2023-04-02T06:03:05.154Z,116.59
2023-04-02T06:04:05.112Z,118.40
2023-04-02T06:05:05.029Z,119.41
2023-04-02T06:06:05.054Z,119.15
2023-04-02T06:07:05.028Z,119.49
2023-04-02T06:08:05.016Z,118.31
2023-04-02T06:09:05.021Z,118.56
2023-04-02T06:10:05.027Z,119.66
2023-04-02T06:11:04.953Z,119.83
2023-04-02T06:12:05.226Z,121.48
2023-04-02T06:13:04.984Z,123.71
2023-04-02T06:14:04.928Z,123.99
2023-04-02T06:15:04.927Z,125.47
2023-04-02T06:16:04.902Z,125.00
2023-04-02T06:17:04.927Z,126.41
2023-04-02T06:18:04.946Z,128.44
2023-04-02T06:19:04.879Z,128.14
2023-04-02T06:20:04.854Z,128.05
2023-04-02T06:21:04.902Z,129.83
2023-04-02T06:22:04.845Z,132.59
2023-04-02T06:23:04.838Z,135.26
2023-04-02T06:24:04.797Z,139.29
2023-04-02T06:25:04.875Z,143.94
2023-04-02T06:26:04.817Z,147.87
2023-04-02T06:27:04.806Z,148.26
2023-04-02T06:28:04.775Z,149.05
2023-04-02T06:29:04.739Z,152.98
2023-04-02T06:30:04.745Z,156.69
2023-04-02T06:31:04.772Z,161.97
2023-04-02T06:32:04.710Z,164.02
2023-04-02T06:33:04.868Z,165.97
2023-04-02T06:34:04.693Z,166.29
2023-04-02T06:35:04.639Z,167.46
2023-04-02T06:36:04.692Z,170.51
2023-04-02T06:37:04.622Z,174.04
2023-04-02T06:38:04.609Z,176.79
2023-04-02T06:39:04.645Z,179.81
2023-04-02T06:40:04.595Z,183.74
2023-04-02T06:41:04.611Z,185.77
2023-04-02T06:42:04.575Z,191.13
2023-04-02T06:43:04.760Z,193.71
2023-04-02T06:44:04.536Z,202.12
2023-04-02T06:45:04.612Z,213.20
2023-04-02T06:46:04.605Z,221.78
2023-04-02T06:47:04.545Z,231.57
2023-04-02T06:48:04.502Z,243.69
2023-04-02T06:49:04.518Z,256.75
2023-04-02T06:50:04.466Z,269.73
2023-04-02T06:51:04.476Z,290.09
2023-04-02T06:52:04.444Z,304.52
2023-04-02T06:53:04.416Z,311.70
2023-04-02T06:54:04.403Z,312.29
2023-04-02T06:55:04.433Z,325.83
2023-04-02T06:56:04.387Z,344.15
2023-04-02T06:57:04.451Z,361.46
2023-04-02T06:58:04.377Z,393.34
2023-04-02T06:59:04.341Z,410.15
2023-04-02T07:00:04.336Z,427.92
2023-04-02T07:01:04.435Z,435.40
2023-04-02T07:02:04.296Z,402.77
2023-04-02T07:03:04.376Z,415.48
2023-04-02T07:04:04.327Z,451.19
2023-04-02T07:05:04.408Z,479.53
2023-04-02T07:06:04.287Z,473.45
2023-04-02T07:07:04.260Z,471.79
2023-04-02T07:08:04.211Z,458.90
2023-04-02T07:09:04.244Z,473.12
2023-04-02T07:10:04.189Z,493.63
2023-04-02T07:11:04.216Z,498.76
2023-04-02T07:12:04.190Z,495.08
2023-04-02T07:13:04.280Z,503.62
2023-04-02T07:14:04.168Z,510.12
2023-04-02T07:15:04.156Z,509.73
2023-04-02T07:16:04.172Z,518.39
2023-04-02T07:17:04.093Z,534.90
2023-04-02T07:18:04.128Z,539.62
2023-04-02T07:19:04.081Z,545.32
2023-04-02T07:20:04.086Z,548.43
2023-04-02T07:21:04.074Z,549.78
2023-04-02T07:22:04.058Z,569.83
2023-04-02T07:23:04.022Z,574.21
2023-04-02T07:24:04.035Z,605.25
2023-04-02T07:25:03.998Z,610.75
2023-04-02T07:26:04.005Z,627.88
2023-04-02T07:27:04.010Z,648.48
2023-04-02T07:28:04.004Z,673.85
2023-04-02T07:29:03.947Z,702.75
2023-04-02T07:30:03.940Z,712.44
2023-04-02T07:31:03.967Z,712.44
2023-04-02T07:32:03.951Z,723.17
2023-04-02T07:33:04.019Z,737.46
2023-04-02T07:34:03.868Z,760.75
2023-04-02T07:35:03.854Z,786.55
2023-04-02T07:36:03.857Z,793.98
2023-04-02T07:37:03.856Z,789.78
2023-04-02T07:38:03.924Z,805.39
2023-04-02T07:39:03.856Z,811.71
2023-04-02T07:40:03.836Z,829.73
2023-04-02T07:41:03.792Z,868.86
2023-04-02T07:42:03.783Z,918.72
2023-04-02T07:43:03.860Z,987.52
2023-04-02T07:44:03.752Z,1061.56
2023-04-02T07:45:05.937Z,1054.90
2023-04-02T07:46:03.724Z,1022.81
2023-04-02T07:47:03.790Z,981.75
2023-04-02T07:48:03.833Z,1012.80
2023-04-02T07:49:03.678Z,1020.48
2023-04-02T07:50:03.678Z,1004.48
2023-04-02T07:51:03.690Z,1011.28
2023-04-02T07:52:03.637Z,1055.73
2023-04-02T07:53:03.644Z,1052.43
2023-04-02T07:54:10.497Z,1079.45
2023-04-02T07:55:03.593Z,1073.42
2023-04-02T07:56:03.596Z,1093.49
2023-04-02T07:57:03.685Z,1107.91
2023-04-02T07:58:03.627Z,1118.97
2023-04-02T07:59:03.562Z,1118.97
2023-04-02T08:00:03.570Z,1122.70
2023-04-02T08:01:03.544Z,1150.56
2023-04-02T08:02:03.564Z,1147.61
2023-04-02T08:03:03.774Z,1135.98
2023-04-02T08:04:03.543Z,1127.41
2023-04-02T08:05:03.482Z,1115.26
2023-04-02T08:06:03.467Z,1143.71
2023-04-02T08:07:03.465Z,1157.49
2023-04-02T08:08:03.437Z,1126.46
2023-04-02T08:09:03.453Z,1107.91
2023-04-02T08:10:03.416Z,1109.74
2023-04-02T08:11:03.401Z,1148.59
2023-04-02T08:12:03.392Z,1199.82
2023-04-02T08:13:03.390Z,1237.35
2023-04-02T08:14:03.370Z,1216.09
2023-04-02T08:15:03.398Z,1252.33
2023-04-02T08:16:03.325Z,1220.51
2023-04-02T08:17:03.365Z,1198.75
2023-04-02T08:18:03.487Z,1192.38
2023-04-02T08:19:03.292Z,1205.20
2023-04-02T08:20:03.427Z,1171.60
2023-04-02T08:21:03.311Z,1201.97
2023-04-02T08:22:03.246Z,1192.38
2023-04-02T08:23:03.274Z,1177.76
2023-04-02T08:24:03.244Z,1197.68
2023-04-02T08:25:03.843Z,1188.16
2023-04-02T08:26:03.228Z,1220.51
2023-04-02T08:27:03.211Z,1219.40
2023-04-02T08:28:03.292Z,1209.53
2023-04-02T08:29:03.202Z,1204.12
2023-04-02T08:30:03.196Z,1248.84
2023-04-02T08:31:03.157Z,1274.88
2023-04-02T08:32:03.132Z,1288.31
2023-04-02T08:33:03.345Z,1297.01
2023-04-02T08:34:03.106Z,1274.88
2023-04-02T08:35:03.098Z,1265.29
2023-04-02T08:36:03.138Z,1283.40
2023-04-02T08:37:03.060Z,1289.55
2023-04-02T08:38:03.048Z,1287.08
2023-04-02T08:39:03.071Z,1272.47
2023-04-02T08:40:03.027Z,1321.22
2023-04-02T08:41:03.030Z,1351.76
2023-04-02T08:42:03.005Z,1386.60
2023-04-02T08:43:03.088Z,1336.98
2023-04-02T08:44:03.024Z,1300.77
2023-04-02T08:45:10.930Z,1326.43
2023-04-02T08:46:03.028Z,1357.21
2023-04-02T08:47:02.944Z,1378.07
2023-04-02T08:48:03.259Z,1440.04
2023-04-02T08:49:02.912Z,1476.40
2023-04-02T08:50:02.894Z,1492.79
2023-04-02T08:51:02.914Z,1518.92
2023-04-02T08:52:02.887Z,1532.76
2023-04-02T08:53:02.848Z,1569.43
2023-04-02T08:54:02.839Z,1608.85
2023-04-02T08:55:02.833Z,1645.26
2023-04-02T08:56:02.822Z,1711.20
2023-04-02T08:57:02.959Z,1779.10
2023-04-02T08:58:02.807Z,1779.10
2023-04-02T08:59:02.788Z,1804.16
2023-04-02T09:00:02.783Z,1850.07
2023-04-02T09:01:02.765Z,1885.07
2023-04-02T09:02:02.799Z,1886.40
2023-04-02T09:03:02.870Z,1905.10
2023-04-02T09:04:02.720Z,1921.43
2023-04-02T09:05:02.737Z,1875.87
2023-04-02T09:06:02.720Z,1866.76
2023-04-02T09:07:02.681Z,1895.70
2023-04-02T09:08:02.660Z,1841.20
2023-04-02T09:09:02.676Z,1832.43
2023-04-02T09:10:02.687Z,1817.57
2023-04-02T09:11:02.639Z,1895.70
2023-04-02T09:12:02.614Z,1938.04
2023-04-02T09:13:02.694Z,1905.10
2023-04-02T09:14:02.599Z,1847.53
2023-04-02T09:15:02.627Z,2008.96
2023-04-02T09:16:02.597Z,2058.15
2023-04-02T09:17:02.547Z,2016.49
2023-04-02T09:18:02.554Z,1959.21
2023-04-02T09:19:02.576Z,1967.81
2023-04-02T09:20:02.530Z,2078.82
2023-04-02T09:21:02.628Z,2146.85
2023-04-02T09:22:02.492Z,2108.15
2023-04-02T09:23:02.478Z,2179.90
2023-04-02T09:24:03.962Z,2339.13
2023-04-02T09:25:02.463Z,2361.72
2023-04-02T09:26:04.525Z,2349.34
2023-04-02T09:27:02.462Z,2351.40
2023-04-02T09:28:02.417Z,2542.53
2023-04-02T09:29:02.438Z,2581.57
2023-04-02T09:30:02.443Z,2652.86
2023-04-02T09:31:02.381Z,2606.59
2023-04-02T09:32:02.461Z,2601.55
2023-04-02T09:33:02.437Z,2776.06
2023-04-02T09:34:02.359Z,2920.74
2023-04-02T09:35:04.197Z,2886.27
2023-04-02T09:36:02.386Z,2601.55
2023-04-02T09:37:02.309Z,2388.99
2023-04-02T09:38:02.326Z,2528.20
2023-04-02T09:39:02.354Z,2528.20
2023-04-02T09:40:02.267Z,2540.13
2023-04-02T09:41:02.335Z,2552.18
2023-04-02T09:42:05.365Z,2521.09
2023-04-02T09:43:02.303Z,2483.84
2023-04-02T09:44:02.258Z,2401.78
2023-04-02T09:45:02.244Z,2458.87
2023-04-02T09:46:02.201Z,2481.55
2023-04-02T09:47:02.214Z,2504.66
2023-04-02T09:48:02.199Z,2393.24
2023-04-02T09:49:02.153Z,2289.36
2023-04-02T09:50:02.206Z,2299.15
2023-04-02T09:51:02.165Z,2380.53
2023-04-02T09:52:02.141Z,2427.80
2023-04-02T09:53:02.105Z,2397.50
2023-04-02T09:54:02.088Z,2516.37
2023-04-02T09:55:02.089Z,2530.57
2023-04-02T09:56:02.068Z,2629.52
2023-04-02T09:57:02.120Z,2581.57
2023-04-02T09:58:02.216Z,2564.35
2023-04-02T09:59:02.024Z,2504.66
2023-04-02T10:00:02.015Z,2486.14
2023-04-02T10:01:02.042Z,2655.48
2023-04-02T10:02:02.004Z,2663.37
2023-04-02T10:03:02.055Z,2739.31
2023-04-02T10:04:02.008Z,2873.93
2023-04-02T10:05:01.996Z,3076.04
2023-04-02T10:06:01.942Z,2750.51
2023-04-02T10:07:01.944Z,2858.66
2023-04-02T10:08:01.938Z,3034.41
2023-04-02T10:09:01.921Z,3396.46
2023-04-02T10:10:01.964Z,3700.14
2023-04-02T10:11:01.890Z,3856.63
2023-04-02T10:12:01.886Z,4203.12
2023-04-02T10:13:01.872Z,4286.85
2023-04-02T10:14:01.840Z,4116.30
2023-04-02T10:15:01.853Z,4057.31
2023-04-02T10:16:01.852Z,4029.96
2023-04-02T10:17:01.840Z,3979.29
2023-04-02T10:18:01.923Z,4072.67
2023-04-02T10:19:01.809Z,4391.84
2023-04-02T10:20:01.795Z,4637.93
2023-04-02T10:21:01.800Z,4694.59
2023-04-02T10:22:01.759Z,4782.22
2023-04-02T10:23:01.782Z,4727.59
2023-04-02T10:24:01.740Z,4917.73
2023-04-02T10:25:01.735Z,4678.26
2023-04-02T10:26:01.801Z,4505.86
2023-04-02T10:27:01.745Z,4399.02
2023-04-02T10:28:01.687Z,4164.09
2023-04-02T10:29:01.693Z,3944.28
2023-04-02T10:30:01.676Z,3746.52
2023-04-02T10:31:01.779Z,3892.91
2023-04-02T10:32:01.742Z,4094.37
2023-04-02T10:33:01.765Z,4446.28
2023-04-02T10:34:01.686Z,4532.43
2023-04-02T10:35:01.675Z,4551.61
2023-04-02T10:36:02.364Z,4653.98
2023-04-02T10:37:01.678Z,4242.90
2023-04-02T10:38:02.377Z,4103.74
2023-04-02T10:39:01.620Z,3791.40
2023-04-02T10:40:01.625Z,3591.46
2023-04-02T10:41:01.602Z,3509.46
2023-04-02T10:42:01.582Z,3507.17
2023-04-02T10:43:01.516Z,3622.90
2023-04-02T10:44:12.766Z,3667.35
2023-04-02T10:45:01.578Z,3581.89
2023-04-02T10:46:01.517Z,3398.61
2023-04-02T10:47:01.487Z,3390.04
2023-04-02T10:48:01.499Z,3292.53
2023-04-02T10:49:01.568Z,3227.35
2023-04-02T10:50:01.495Z,3135.20
2023-04-02T10:51:01.458Z,3067.27
2023-04-02T10:52:01.438Z,3030.99
2023-04-02T10:53:01.421Z,3095.51
2023-04-02T10:54:01.427Z,3003.91
2023-04-02T10:55:01.398Z,2892.47
2023-04-02T10:56:01.384Z,2837.55
2023-04-02T10:57:01.400Z,2728.19
2023-04-02T10:58:01.357Z,2619.28
2023-04-02T10:59:01.343Z,2571.70
2023-04-02T11:00:01.343Z,2495.36
2023-04-02T11:01:01.313Z,2502.32
2023-04-02T11:02:01.374Z,2427.80
2023-04-02T11:03:01.402Z,2414.72
2023-04-02T11:04:01.300Z,2374.23
2023-04-02T11:05:01.972Z,2322.97
2023-04-02T11:06:01.247Z,2353.46
2023-04-02T11:07:13.283Z,2341.17
2023-04-02T11:08:01.215Z,2343.21
2023-04-02T11:09:01.255Z,2273.88
2023-04-02T11:10:01.184Z,2067.64
2023-04-02T11:11:02.810Z,2152.00
2023-04-02T11:12:01.179Z,2258.61
2023-04-02T11:13:01.146Z,2309.01
2023-04-02T11:14:01.165Z,2318.97
2023-04-02T11:15:01.157Z,2277.73
2023-04-02T11:16:01.141Z,2372.13
2023-04-02T11:17:01.099Z,2432.19
2023-04-02T11:18:01.139Z,2604.06
2023-04-02T11:19:01.068Z,2671.30
2023-04-02T11:20:01.067Z,2601.55
2023-04-02T11:21:01.078Z,2581.57
2023-04-02T11:22:03.089Z,2690.00
2023-04-02T11:23:01.026Z,2695.39
2023-04-02T11:24:01.032Z,2690.00
2023-04-02T11:25:01.007Z,2542.53
2023-04-02T11:26:00.996Z,2461.12
2023-04-02T11:27:00.993Z,2345.25
2023-04-02T11:28:00.954Z,2365.88
2023-04-02T11:29:00.968Z,2322.97
2023-04-02T11:30:00.924Z,2260.50
2023-04-02T11:31:01.008Z,2251.05
2023-04-02T11:32:00.901Z,2176.38
2023-04-02T11:33:00.980Z,2134.92
2023-04-02T11:34:00.892Z,2108.15
2023-04-02T11:35:07.163Z,2096.65
2023-04-02T11:36:00.880Z,2059.72
2023-04-02T11:37:00.842Z,2022.56
2023-04-02T11:38:00.826Z,2011.97
2023-04-02T11:39:11.035Z,1980.85
2023-04-02T11:40:00.808Z,2013.47
2023-04-02T11:41:00.790Z,2077.22
2023-04-02T11:42:00.786Z,2148.56
2023-04-02T11:43:00.776Z,2215.81
2023-04-02T11:44:00.764Z,2201.31
2023-04-02T11:45:00.762Z,2215.81
2023-04-02T11:46:00.734Z,2245.41
2023-04-02T11:47:00.762Z,2239.80
2023-04-02T11:48:00.905Z,2148.56
2023-04-02T11:49:00.687Z,2183.44
2023-04-02T11:50:00.684Z,2186.99
2023-04-02T11:51:00.694Z,2237.94
2023-04-02T11:52:11.540Z,2329.00
2023-04-02T11:53:00.640Z,2295.22
2023-04-02T11:54:00.636Z,2169.35
2023-04-02T11:55:00.627Z,2183.44
2023-04-02T11:56:00.606Z,2090.13
2023-04-02T11:57:00.636Z,2124.80
2023-04-02T11:58:00.579Z,2153.72
2023-04-02T11:59:00.560Z,2221.30
2023-04-02T12:00:00.587Z,2201.31
2023-04-02T12:01:00.519Z,2208.54
2023-04-02T12:02:00.558Z,2210.35
2023-04-02T12:03:00.556Z,2221.30
2023-04-02T12:04:00.479Z,2251.05
2023-04-02T12:05:00.566Z,2365.88
2023-04-02T12:06:02.303Z,2347.29
2023-04-02T12:07:00.476Z,2441.02
2023-04-02T12:08:00.457Z,2594.02
2023-04-02T12:09:00.466Z,2604.06
2023-04-02T12:10:00.436Z,2647.64
2023-04-02T12:11:00.409Z,2695.39
2023-04-02T12:12:00.415Z,2802.08
2023-04-02T12:13:00.393Z,2864.75
2023-04-02T12:14:00.367Z,2927.09
2023-04-02T12:15:00.376Z,3039.55
2023-04-02T12:16:00.355Z,3296.57
2023-04-02T12:17:00.444Z,3284.49
2023-04-02T12:18:00.377Z,3217.70
2023-04-02T12:19:00.300Z,3258.63
2023-04-02T12:20:00.291Z,3352.02
2023-04-02T12:21:00.299Z,3435.50
2023-04-02T12:22:00.321Z,3284.49
2023-04-02T12:23:00.245Z,3266.54
2023-04-02T12:24:00.234Z,3215.78
2023-04-02T12:25:00.215Z,3479.95
2023-04-02T12:26:00.211Z,3654.89
2023-04-02T12:27:00.228Z,3608.32
2023-04-02T12:28:00.218Z,3450.93
2023-04-02T12:29:00.164Z,3500.32
2023-04-02T12:30:00.157Z,3541.80